Time;durP1;ratioP1;P1;durP2;ratioP2;P2;SDS_P1;SDS_P2;PMS_P1;PMS_P2;Temp;Humidity;BMP_temperature;BMP_pressure;BME280_temperature;BME280_humidity;BME280_pressure;Samples;Min_cycle;Max_cycle;Signal;HPM_P1;HPM_P2
2021/08/20 00:02:10;;;;;;;15.32;9.75;;;;;;;;;;5070225;28;20102;-60
2021/08/20 00:04:36;;;;;;;12.20;8.75;;;;;;;;;;5070278;28;20036;-60
2021/08/20 00:07:02;;;;;;;13.88;9.27;;;;;;;;;;5070697;28;20044;-60
2021/08/20 00:09:29;;;;;;;14.45;9.65;;;;;;;;;;5069943;28;20084;-59
2021/08/20 00:11:55;;;;;;;14.73;10.57;;;;;;;;;;5071781;28;20052;-59
2021/08/20 00:14:22;;;;;;;17.27;10.05;;;;;;;;;;5070112;28;20131;-60
2021/08/20 00:16:49;;;;;;;20.27;9.73;;;;;;;;;;5070066;28;20500;-60
2021/08/20 00:19:15;;;;;;;16.58;9.20;;;;;;;;;;5070413;28;20044;-60
2021/08/20 00:21:41;;;;;;;11.85;8.68;;;;;;;;;;5068378;28;20508;-59
2021/08/20 00:24:08;;;;;;;12.48;9.30;;;;;;;;;;5071450;28;20091;-60
2021/08/20 00:26:34;;;;;;;13.32;9.27;;;;;;;;;;5068728;28;20048;-58
2021/08/20 00:29:00;;;;;;;16.08;9.45;;;;;;;;;;5070390;28;20047;-60
2021/08/20 00:31:30;;;;;;;17.55;9.93;;;;;;;;;;5068830;28;20514;-59
2021/08/20 00:33:57;;;;;;;14.57;9.57;;;;;;;;;;5068858;28;20090;-59
2021/08/20 00:36:23;;;;;;;16.20;10.02;;;;;;;;;;5068605;28;20101;-60
2021/08/20 00:38:49;;;;;;;14.43;9.48;;;;;;;;;;5071718;28;20052;-60
2021/08/20 00:41:16;;;;;;;15.63;9.43;;;;;;;;;;5070102;28;20056;-60
2021/08/20 00:43:43;;;;;;;17.27;9.80;;;;;;;;;;5069933;28;20051;-59
2021/08/20 00:46:10;;;;;;;15.85;10.15;;;;;;;;;;5068258;28;20112;-60
2021/08/20 00:48:38;;;;;;;18.20;10.00;;;;;;;;;;5070274;28;20041;-60
2021/08/20 00:51:08;;;;;;;14.90;9.75;;;;;;;;;;5071575;28;20388;-59
2021/08/20 00:53:38;;;;;;;17.73;9.73;;;;;;;;;;5068165;28;20423;-60
2021/08/20 00:56:06;;;;;;;17.90;10.18;;;;;;;;;;5069570;28;20166;-60
2021/08/20 00:58:34;;;;;;;15.30;10.25;;;;;;;;;;5066802;28;20515;-60
2021/08/20 01:01:01;;;;;;;16.05;9.88;;;;;;;;;;5061777;28;20051;-59
2021/08/20 01:03:28;;;;;;;16.42;10.65;;;;;;;;;;5068434;28;20048;-59
2021/08/20 01:05:55;;;;;;;16.88;10.43;;;;;;;;;;5069033;28;20040;-59
2021/08/20 01:08:23;;;;;;;13.27;9.23;;;;;;;;;;5070270;28;20044;-59
2021/08/20 01:10:50;;;;;;;16.95;9.95;;;;;;;;;;5072921;28;20507;-59
2021/08/20 01:13:17;;;;;;;14.88;9.88;;;;;;;;;;5069847;28;20419;-60
2021/08/20 01:15:44;;;;;;;17.75;10.43;;;;;;;;;;5071823;28;20068;-59
2021/08/20 01:18:11;;;;;;;17.48;10.98;;;;;;;;;;5073359;28;20049;-59
2021/08/20 01:20:38;;;;;;;19.13;10.93;;;;;;;;;;5072253;28;20075;-59
2021/08/20 01:23:06;;;;;;;17.30;10.73;;;;;;;;;;5071885;28;20067;-59
2021/08/20 01:25:34;;;;;;;16.38;10.57;;;;;;;;;;5071620;28;20074;-59
2021/08/20 01:28:04;;;;;;;18.95;10.20;;;;;;;;;;5071686;28;20496;-60
2021/08/20 01:30:31;;;;;;;17.05;9.75;;;;;;;;;;5071593;28;20141;-60
2021/08/20 01:32:58;;;;;;;17.20;10.05;;;;;;;;;;5074009;28;20406;-59
2021/08/20 01:35:24;;;;;;;20.95;10.45;;;;;;;;;;5071216;28;20036;-59
2021/08/20 01:37:53;;;;;;;15.82;9.23;;;;;;;;;;5071436;28;20094;-60
2021/08/20 01:40:20;;;;;;;16.92;9.73;;;;;;;;;;5070416;28;20432;-59
2021/08/20 01:42:46;;;;;;;17.98;11.32;;;;;;;;;;5070010;28;20052;-59
2021/08/20 01:45:15;;;;;;;20.58;10.57;;;;;;;;;;5072479;28;20059;-59
2021/08/20 01:47:43;;;;;;;17.35;10.38;;;;;;;;;;5106602;28;20444;-59
2021/08/20 01:50:11;;;;;;;16.45;10.68;;;;;;;;;;5069500;28;20120;-59
2021/08/20 01:52:38;;;;;;;17.25;10.48;;;;;;;;;;5071139;28;20080;-59
2021/08/20 01:55:05;;;;;;;17.98;10.70;;;;;;;;;;5071418;28;20044;-59
2021/08/20 01:57:32;;;;;;;17.08;9.68;;;;;;;;;;5071564;28;20040;-59
2021/08/20 01:59:58;;;;;;;16.48;10.80;;;;;;;;;;5067741;28;20047;-59
2021/08/20 02:02:24;;;;;;;26.27;10.05;;;;;;;;;;5071258;28;20045;-59
2021/08/20 02:04:53;;;;;;;15.95;9.48;;;;;;;;;;5069619;28;20119;-59
2021/08/20 02:07:19;;;;;;;20.15;11.10;;;;;;;;;;5071560;28;20044;-59
2021/08/20 02:09:47;;;;;;;15.80;9.55;;;;;;;;;;5071459;28;20047;-59
2021/08/20 02:12:14;;;;;;;20.77;10.27;;;;;;;;;;5072574;28;20052;-59
2021/08/20 02:14:54;;;;;;;18.90;10.73;;;;;;;;;;5073422;28;20488;-59
2021/08/20 02:17:23;;;;;;;19.83;10.98;;;;;;;;;;5071041;28;20399;-59
2021/08/20 02:19:50;;;;;;;20.67;10.52;;;;;;;;;;5069699;28;20040;-60
2021/08/20 02:22:17;;;;;;;17.52;10.15;;;;;;;;;;5069765;28;20499;-60
2021/08/20 02:24:52;;;;;;;16.75;10.88;;;;;;;;;;5071351;28;20441;-59
2021/08/20 02:27:19;;;;;;;19.33;11.00;;;;;;;;;;5071747;28;20079;-59
2021/08/20 02:29:46;;;;;;;17.50;10.23;;;;;;;;;;5072851;28;20056;-59
2021/08/20 02:32:13;;;;;;;17.02;10.75;;;;;;;;;;5071918;28;20048;-59
2021/08/20 02:34:39;;;;;;;16.38;10.40;;;;;;;;;;5070951;28;20064;-59
2021/08/20 02:37:06;;;;;;;16.98;9.95;;;;;;;;;;5071114;28;20072;-59
2021/08/20 02:39:34;;;;;;;15.98;9.52;;;;;;;;;;5070941;28;20187;-59
2021/08/20 02:42:01;;;;;;;20.67;10.32;;;;;;;;;;5072846;28;20486;-59
2021/08/20 02:44:27;;;;;;;18.25;10.55;;;;;;;;;;5070861;28;20040;-59
2021/08/20 02:46:54;;;;;;;21.98;11.20;;;;;;;;;;5054027;28;20045;-59
2021/08/20 02:49:20;;;;;;;18.95;11.43;;;;;;;;;;5070636;28;20074;-59
2021/08/20 02:51:48;;;;;;;21.75;10.60;;;;;;;;;;5070691;28;20069;-59
2021/08/20 02:54:17;;;;;;;18.05;11.88;;;;;;;;;;5071402;28;20040;-59
2021/08/20 02:56:44;;;;;;;17.38;10.63;;;;;;;;;;5071889;28;20053;-59
2021/08/20 02:59:11;;;;;;;19.40;10.88;;;;;;;;;;5069239;28;20499;-59
2021/08/20 03:01:37;;;;;;;17.58;10.27;;;;;;;;;;5068637;28;20439;-60
2021/08/20 03:04:10;;;;;;;18.10;10.52;;;;;;;;;;5070224;28;20094;-59
2021/08/20 03:06:37;;;;;;;21.52;11.30;;;;;;;;;;5062348;28;20041;-59
2021/08/20 03:09:08;;;;;;;19.40;12.13;;;;;;;;;;5071990;28;20051;-59
2021/08/20 03:11:38;;;;;;;19.98;11.10;;;;;;;;;;5069461;28;20088;-59
2021/08/20 03:14:05;;;;;;;22.60;10.88;;;;;;;;;;5070049;28;20040;-59
2021/08/20 03:16:36;;;;;;;20.85;11.60;;;;;;;;;;5069442;28;20136;-59
2021/08/20 03:19:06;;;;;;;21.45;12.07;;;;;;;;;;5069790;28;20076;-59
2021/08/20 03:21:33;;;;;;;24.23;11.48;;;;;;;;;;5069468;28;20044;-59
2021/08/20 03:24:02;;;;;;;23.23;11.85;;;;;;;;;;5071792;28;20083;-59
2021/08/20 03:26:33;;;;;;;29.98;12.35;;;;;;;;;;5067542;28;20055;-59
2021/08/20 03:29:02;;;;;;;17.83;10.52;;;;;;;;;;5063555;28;20443;-59
2021/08/20 03:31:29;;;;;;;18.83;10.68;;;;;;;;;;5067532;28;20048;-59
2021/08/20 03:33:58;;;;;;;20.33;11.82;;;;;;;;;;5069290;28;20083;-59
2021/08/20 03:36:26;;;;;;;23.50;11.85;;;;;;;;;;5062014;28;20422;-59
2021/08/20 03:38:57;;;;;;;23.02;11.95;;;;;;;;;;5096517;28;20072;-59
2021/08/20 03:41:26;;;;;;;19.60;11.20;;;;;;;;;;5101162;28;20087;-59
2021/08/20 03:44:06;;;;;;;24.15;13.05;;;;;;;;;;5067579;28;20380;-59
2021/08/20 03:46:39;;;;;;;23.48;11.75;;;;;;;;;;5068407;28;20411;-60
2021/08/20 03:49:06;;;;;;;20.08;11.00;;;;;;;;;;5069875;28;20488;-60
2021/08/20 03:51:33;;;;;;;28.23;13.85;;;;;;;;;;5069785;28;20448;-59
2021/08/20 03:54:03;;;;;;;21.58;12.07;;;;;;;;;;5067386;28;20087;-60
2021/08/20 03:56:30;;;;;;;23.08;12.57;;;;;;;;;;5060520;28;20041;-59
2021/08/20 03:59:09;;;;;;;23.10;12.65;;;;;;;;;;5069354;28;20132;-59
2021/08/20 04:01:35;;;;;;;22.75;12.50;;;;;;;;;;5069648;28;20087;-59
2021/08/20 04:04:02;;;;;;;22.38;11.77;;;;;;;;;;5069780;28;20040;-59
2021/08/20 04:06:43;;;;;;;19.55;10.60;;;;;;;;;;5055312;28;20076;-59
2021/08/20 04:09:11;;;;;;;24.00;13.68;;;;;;;;;;5065975;28;20048;-59
2021/08/20 04:12:00;;;;;;;22.98;12.38;;;;;;;;;;5063658;28;20080;-59
2021/08/20 04:14:45;;;;;;;;;;;;;;;;;;5082302;28;20055;-60
2021/08/20 04:17:11;;;;;;;22.10;10.98;;;;;;;;;;5080380;28;19948;-59
2021/08/20 04:19:40;;;;;;;22.65;12.57;;;;;;;;;;5060707;28;20049;-59
2021/08/20 04:22:07;;;;;;;28.38;14.00;;;;;;;;;;5099540;28;20045;-59
2021/08/20 04:24:36;;;;;;;24.38;12.40;;;;;;;;;;5056633;28;20076;-59
2021/08/20 04:27:22;;;;;;;24.45;13.00;;;;;;;;;;5067284;28;20060;-59
2021/08/20 04:29:57;;;;;;;30.92;14.73;;;;;;;;;;5067130;28;20053;-59
2021/08/20 04:32:43;;;;;;;29.13;13.50;;;;;;;;;;5066083;28;20048;-59
2021/08/20 04:35:28;;;;;;;;;;;;;;;;;;5063494;28;20464;-59
2021/08/20 04:38:16;;;;;;;27.58;13.77;;;;;;;;;;5064746;28;19924;-59
2021/08/20 04:40:57;;;;;;;31.20;13.18;;;;;;;;;;5060219;28;20073;-59
2021/08/20 04:43:50;;;;;;;24.48;12.95;;;;;;;;;;5008351;28;20061;-59
2021/08/20 04:46:39;;;;;;;35.17;14.32;;;;;;;;;;4954016;29;20078;-59
2021/08/20 04:49:35;;;;;;;35.10;15.13;;;;;;;;;;4953289;28;20085;-59
2021/08/20 04:52:24;;;;;;;33.65;16.50;;;;;;;;;;4951347;28;20078;-59
2021/08/20 04:55:20;;;;;;;37.80;15.85;;;;;;;;;;4889442;29;20135;-59
2021/08/20 04:57:46;;;;;;;40.38;16.27;;;;;;;;;;4878727;29;20131;-59
2021/08/20 05:00:13;;;;;;;41.00;18.15;;;;;;;;;;4893780;29;20130;-59
2021/08/20 05:02:40;;;;;;;39.30;17.98;;;;;;;;;;4892211;29;20052;-60
2021/08/20 05:05:07;;;;;;;38.22;17.73;;;;;;;;;;4893373;29;20083;-60
2021/08/20 05:07:37;;;;;;;38.88;18.10;;;;;;;;;;4894341;29;20152;-60
2021/08/20 05:10:09;;;;;;;31.38;16.88;;;;;;;;;;4894577;29;20390;-60
2021/08/20 05:12:36;;;;;;;37.65;18.17;;;;;;;;;;4891337;29;20132;-60
2021/08/20 05:15:03;;;;;;;32.50;16.60;;;;;;;;;;4897449;29;20547;-60
2021/08/20 05:17:29;;;;;;;26.27;13.77;;;;;;;;;;4896555;29;20517;-60
2021/08/20 05:19:56;;;;;;;26.80;13.02;;;;;;;;;;4904402;29;20052;-60
2021/08/20 05:22:22;;;;;;;19.70;12.98;;;;;;;;;;4934436;29;20044;-60
2021/08/20 05:24:48;;;;;;;18.05;11.30;;;;;;;;;;4986424;28;20054;-60
2021/08/20 05:27:15;;;;;;;23.30;12.45;;;;;;;;;;4992329;28;20453;-60
2021/08/20 05:29:41;;;;;;;20.42;11.77;;;;;;;;;;4992797;28;20050;-60
2021/08/20 05:32:07;;;;;;;21.27;11.70;;;;;;;;;;5039414;28;20045;-60
2021/08/20 05:34:34;;;;;;;17.73;10.35;;;;;;;;;;5067522;28;20072;-60
2021/08/20 05:37:00;;;;;;;21.90;10.13;;;;;;;;;;5068281;28;20051;-60
2021/08/20 05:39:26;;;;;;;17.08;10.15;;;;;;;;;;5067356;28;20044;-60
2021/08/20 05:41:53;;;;;;;14.65;9.73;;;;;;;;;;5066822;28;20064;-60
2021/08/20 05:44:19;;;;;;;13.32;8.63;;;;;;;;;;5065189;28;20123;-60
2021/08/20 05:46:45;;;;;;;13.95;9.20;;;;;;;;;;5064868;28;20040;-60
2021/08/20 05:49:12;;;;;;;13.63;9.00;;;;;;;;;;5058093;28;20065;-60
2021/08/20 05:51:38;;;;;;;11.52;8.52;;;;;;;;;;5055221;28;20044;-60
2021/08/20 05:54:04;;;;;;;11.40;8.18;;;;;;;;;;5067527;28;20051;-60
2021/08/20 05:56:31;;;;;;;12.98;8.23;;;;;;;;;;5065110;28;20068;-61
2021/08/20 05:58:57;;;;;;;12.40;8.30;;;;;;;;;;5067155;28;20135;-61
2021/08/20 06:01:23;;;;;;;14.43;7.85;;;;;;;;;;5067490;28;20045;-60
2021/08/20 06:03:50;;;;;;;21.20;7.32;;;;;;;;;;5069175;28;20064;-61
2021/08/20 06:06:29;;;;;;;16.35;7.63;;;;;;;;;;5103533;28;20045;-60
2021/08/20 06:08:56;;;;;;;11.32;7.63;;;;;;;;;;5073265;28;20076;-60
2021/08/20 06:11:23;;;;;;;20.52;8.13;;;;;;;;;;5070189;28;20059;-61
2021/08/20 06:13:49;;;;;;;11.18;7.55;;;;;;;;;;5070621;28;20480;-60
2021/08/20 06:16:16;;;;;;;11.15;8.48;;;;;;;;;;5070489;28;20483;-60
2021/08/20 06:18:42;;;;;;;11.70;6.78;;;;;;;;;;5072329;28;20049;-61
2021/08/20 06:21:09;;;;;;;11.57;7.82;;;;;;;;;;5073494;28;20055;-60
2021/08/20 06:23:35;;;;;;;14.88;8.65;;;;;;;;;;5072330;28;20202;-61
2021/08/20 06:26:01;;;;;;;15.35;7.78;;;;;;;;;;5071837;28;20044;-60
2021/08/20 06:28:28;;;;;;;12.05;7.00;;;;;;;;;;5071915;28;20052;-60
2021/08/20 06:30:54;;;;;;;10.57;6.80;;;;;;;;;;5071660;28;20063;-61
2021/08/20 06:33:20;;;;;;;13.10;6.93;;;;;;;;;;5072229;28;20075;-60
2021/08/20 06:35:47;;;;;;;9.80;6.88;;;;;;;;;;5073235;28;20101;-61
2021/08/20 06:38:13;;;;;;;9.93;6.63;;;;;;;;;;5071640;28;20092;-60
2021/08/20 06:40:40;;;;;;;9.55;6.57;;;;;;;;;;5071354;28;20048;-61
2021/08/20 06:43:06;;;;;;;9.93;6.97;;;;;;;;;;5071656;28;20059;-60
2021/08/20 06:45:33;;;;;;;10.75;6.70;;;;;;;;;;5071825;28;20129;-60
2021/08/20 06:47:59;;;;;;;10.95;7.40;;;;;;;;;;5073338;28;20041;-61
2021/08/20 06:50:25;;;;;;;9.65;7.15;;;;;;;;;;5069934;28;20043;-61
2021/08/20 06:52:52;;;;;;;9.40;6.22;;;;;;;;;;5069573;28;20499;-60
2021/08/20 06:55:20;;;;;;;7.80;6.03;;;;;;;;;;5069742;28;20041;-60
2021/08/20 06:57:46;;;;;;;12.50;6.47;;;;;;;;;;5071256;28;20051;-59
2021/08/20 07:00:13;;;;;;;9.88;6.40;;;;;;;;;;5072344;28;20157;-60
2021/08/20 07:02:46;;;;;;;13.18;6.05;;;;;;;;;;5072105;28;20048;-60
2021/08/20 07:05:13;;;;;;;9.95;5.90;;;;;;;;;;5070700;28;20450;-60
2021/08/20 07:07:39;;;;;;;10.75;6.18;;;;;;;;;;5070763;28;20494;-60
2021/08/20 07:10:16;;;;;;;8.68;6.03;;;;;;;;;;5070761;28;20059;-61
2021/08/20 07:12:43;;;;;;;9.45;6.68;;;;;;;;;;5056778;28;20110;-60
2021/08/20 07:15:10;;;;;;;12.05;5.63;;;;;;;;;;5079607;28;20052;-60
2021/08/20 07:17:37;;;;;;;9.07;5.57;;;;;;;;;;5073955;28;20049;-60
2021/08/20 07:20:04;;;;;;;9.05;5.70;;;;;;;;;;5074532;28;20067;-60
2021/08/20 07:22:30;;;;;;;9.52;5.07;;;;;;;;;;5074335;28;20067;-62
2021/08/20 07:24:56;;;;;;;7.90;5.35;;;;;;;;;;5072773;28;20044;-60
2021/08/20 07:27:23;;;;;;;6.75;5.00;;;;;;;;;;5070760;28;20088;-61
2021/08/20 07:29:49;;;;;;;6.70;4.95;;;;;;;;;;5074068;28;20476;-61
2021/08/20 07:32:16;;;;;;;11.35;5.20;;;;;;;;;;5071843;28;20396;-61
2021/08/20 07:34:43;;;;;;;11.27;5.47;;;;;;;;;;5071649;28;20102;-61
2021/08/20 07:37:09;;;;;;;8.80;6.10;;;;;;;;;;5074135;28;20410;-61
2021/08/20 07:39:36;;;;;;;7.50;5.30;;;;;;;;;;5070075;28;20051;-61
2021/08/20 07:42:04;;;;;;;8.10;5.57;;;;;;;;;;5076718;28;20087;-61
2021/08/20 07:44:30;;;;;;;10.82;6.47;;;;;;;;;;5080689;28;20055;-61
2021/08/20 07:46:56;;;;;;;10.77;6.00;;;;;;;;;;5079302;28;20045;-62
2021/08/20 07:49:23;;;;;;;9.93;5.50;;;;;;;;;;5074478;28;20094;-61
2021/08/20 07:51:50;;;;;;;8.60;5.50;;;;;;;;;;5071526;28;20079;-60
2021/08/20 07:54:16;;;;;;;12.30;6.13;;;;;;;;;;5073510;28;20760;-62
2021/08/20 07:56:42;;;;;;;9.77;5.50;;;;;;;;;;5071211;28;20106;-62
2021/08/20 07:59:09;;;;;;;6.82;4.75;;;;;;;;;;5070033;28;20455;-60
2021/08/20 08:01:35;;;;;;;13.88;6.95;;;;;;;;;;5069469;28;20079;-62
2021/08/20 08:04:01;;;;;;;6.90;5.15;;;;;;;;;;5070149;28;20092;-61
2021/08/20 08:06:28;;;;;;;10.57;6.18;;;;;;;;;;5070124;28;20052;-61
2021/08/20 08:08:54;;;;;;;8.02;5.47;;;;;;;;;;5071083;28;20048;-61
2021/08/20 08:11:21;;;;;;;5.82;4.43;;;;;;;;;;5068697;28;20060;-62
2021/08/20 08:13:47;;;;;;;7.60;5.28;;;;;;;;;;5069644;28;20053;-61
2021/08/20 08:16:13;;;;;;;7.25;4.85;;;;;;;;;;5069443;28;20098;-61
2021/08/20 08:18:40;;;;;;;11.45;5.45;;;;;;;;;;5073912;28;20088;-61
2021/08/20 08:21:06;;;;;;;6.70;4.38;;;;;;;;;;5075392;28;20123;-61
2021/08/20 08:23:33;;;;;;;11.07;5.10;;;;;;;;;;5072271;28;20641;-61
2021/08/20 08:25:59;;;;;;;7.05;4.60;;;;;;;;;;5072240;28;20119;-62
2021/08/20 08:28:25;;;;;;;7.10;5.00;;;;;;;;;;5073644;28;20048;-61
2021/08/20 08:30:52;;;;;;;7.43;5.30;;;;;;;;;;5073749;28;20102;-62
2021/08/20 08:33:18;;;;;;;9.18;5.40;;;;;;;;;;5074017;28;20550;-61
2021/08/20 08:35:45;;;;;;;8.75;5.35;;;;;;;;;;5074853;28;20499;-62
2021/08/20 08:38:13;;;;;;;10.40;5.55;;;;;;;;;;5073267;28;20044;-61
2021/08/20 08:40:40;;;;;;;7.85;4.88;;;;;;;;;;5073809;28;20079;-61
2021/08/20 08:43:07;;;;;;;7.60;5.40;;;;;;;;;;5074042;28;20037;-61
2021/08/20 08:45:34;;;;;;;9.63;5.20;;;;;;;;;;5073829;28;20067;-61
2021/08/20 08:48:05;;;;;;;6.65;5.13;;;;;;;;;;5075931;28;20076;-62
2021/08/20 08:50:32;;;;;;;11.45;5.95;;;;;;;;;;5072341;28;20053;-61
2021/08/20 08:52:58;;;;;;;11.85;5.32;;;;;;;;;;5072081;28;20057;-61
2021/08/20 08:55:25;;;;;;;17.40;5.68;;;;;;;;;;5072645;28;20123;-62
2021/08/20 08:57:51;;;;;;;6.22;4.80;;;;;;;;;;5072990;28;20049;-61
2021/08/20 09:00:31;;;;;;;6.30;4.68;;;;;;;;;;5072897;28;20088;-62
2021/08/20 09:02:58;;;;;;;10.15;5.00;;;;;;;;;;5074465;28;20114;-60
2021/08/20 09:05:24;;;;;;;13.18;5.45;;;;;;;;;;5072100;28;20032;-61
2021/08/20 09:07:54;;;;;;;8.10;5.38;;;;;;;;;;5072768;28;20044;-60
2021/08/20 09:10:25;;;;;;;7.88;4.38;;;;;;;;;;5072337;28;20140;-61
2021/08/20 09:12:56;;;;;;;9.40;4.75;;;;;;;;;;5072849;28;20561;-61
2021/08/20 09:15:24;;;;;;;7.07;4.68;;;;;;;;;;5073387;28;20079;-62
2021/08/20 09:18:00;;;;;;;10.75;5.38;;;;;;;;;;5072493;28;20052;-61
2021/08/20 09:20:27;;;;;;;7.85;4.70;;;;;;;;;;5073035;28;20052;-61
2021/08/20 09:22:55;;;;;;;6.97;4.53;;;;;;;;;;5072717;28;20135;-62
2021/08/20 09:25:30;;;;;;;10.30;5.55;;;;;;;;;;5072676;28;20049;-62
2021/08/20 09:28:15;;;;;;;8.52;5.00;;;;;;;;;;5070634;28;20056;-60
2021/08/20 09:30:43;;;;;;;10.43;4.35;;;;;;;;;;5056112;28;20041;-61
2021/08/20 09:33:12;;;;;;;6.57;4.75;;;;;;;;;;5074582;28;20056;-61
2021/08/20 09:35:39;;;;;;;8.55;5.65;;;;;;;;;;5072227;28;20091;-61
2021/08/20 09:38:10;;;;;;;7.60;4.75;;;;;;;;;;5072787;28;20064;-62
2021/08/20 09:40:36;;;;;;;9.77;5.38;;;;;;;;;;5072079;28;20128;-61
2021/08/20 09:43:19;;;;;;;8.32;5.15;;;;;;;;;;5072544;28;20488;-61
2021/08/20 09:45:56;;;;;;;10.35;6.20;;;;;;;;;;5057522;28;20154;-62
2021/08/20 09:48:39;;;;;;;6.40;4.95;;;;;;;;;;5072509;28;20049;-62
2021/08/20 09:51:05;;;;;;;9.38;5.78;;;;;;;;;;5069425;28;20071;-61
2021/08/20 09:53:31;;;;;;;9.93;5.15;;;;;;;;;;5071715;28;20116;-61
2021/08/20 09:56:01;;;;;;;10.85;5.55;;;;;;;;;;5072670;28;20040;-62
2021/08/20 09:58:30;;;;;;;9.82;5.50;;;;;;;;;;5072799;28;20083;-62
2021/08/20 10:00:57;;;;;;;8.20;5.03;;;;;;;;;;5072634;28;20403;-62
2021/08/20 10:03:24;;;;;;;8.82;5.72;;;;;;;;;;5072341;28;20549;-61
2021/08/20 10:05:51;;;;;;;8.88;5.53;;;;;;;;;;5072569;28;20087;-62
2021/08/20 10:08:18;;;;;;;10.45;5.45;;;;;;;;;;5070876;28;20407;-62
2021/08/20 10:10:45;;;;;;;6.78;5.50;;;;;;;;;;5070697;28;20048;-62
2021/08/20 10:13:16;;;;;;;7.35;4.45;;;;;;;;;;5072336;28;20045;-60
2021/08/20 10:15:43;;;;;;;9.43;5.32;;;;;;;;;;5072380;28;20037;-61
2021/08/20 10:18:11;;;;;;;7.80;4.97;;;;;;;;;;5074169;28;20101;-62
2021/08/20 10:20:39;;;;;;;5.43;4.35;;;;;;;;;;5069482;28;20076;-61
2021/08/20 10:23:05;;;;;;;6.53;4.50;;;;;;;;;;5070071;28;20048;-61
2021/08/20 10:25:32;;;;;;;5.57;4.20;;;;;;;;;;5072411;28;20036;-61
2021/08/20 10:27:59;;;;;;;8.63;5.32;;;;;;;;;;5071923;28;20064;-62
2021/08/20 10:30:25;;;;;;;5.88;4.53;;;;;;;;;;5071647;28;20056;-62
2021/08/20 10:33:10;;;;;;;7.55;4.45;;;;;;;;;;5073364;28;20407;-62
2021/08/20 10:35:56;;;;;;;6.97;5.07;;;;;;;;;;5071650;28;20083;-62
2021/08/20 10:38:24;;;;;;;6.93;4.57;;;;;;;;;;5071472;28;20052;-60
2021/08/20 10:41:06;;;;;;;5.18;3.90;;;;;;;;;;5070076;28;20076;-60
2021/08/20 10:43:51;;;;;;;9.55;4.72;;;;;;;;;;5071696;28;20052;-61
2021/08/20 10:46:42;;;;;;;6.13;4.38;;;;;;;;;;5070118;28;20087;-61
2021/08/20 10:49:19;;;;;;;8.32;5.35;;;;;;;;;;5066699;28;20053;-61
2021/08/20 10:51:52;;;;;;;9.18;4.95;;;;;;;;;;5056187;28;20087;-61
2021/08/20 10:54:26;;;;;;;8.18;5.28;;;;;;;;;;5072585;28;20052;-62
2021/08/20 10:56:53;;;;;;;7.70;5.43;;;;;;;;;;5071572;28;20059;-62
2021/08/20 10:59:37;;;;;;;6.55;4.90;;;;;;;;;;5070860;28;20484;-62
2021/08/20 11:02:19;;;;;;;8.25;5.15;;;;;;;;;;5071265;28;20040;-62
2021/08/20 11:04:57;;;;;;;7.78;4.78;;;;;;;;;;5063909;28;20040;-62
2021/08/20 11:07:42;;;;;;;8.15;5.28;;;;;;;;;;5071042;28;20040;-62
2021/08/20 11:10:08;;;;;;;8.73;5.22;;;;;;;;;;5068478;28;20060;-62
2021/08/20 11:12:47;;;;;;;7.05;4.55;;;;;;;;;;5070288;28;20039;-62
2021/08/20 11:18:00;;;;;;;5.78;4.80;;;;;;;;;;5069991;28;20048;-62
2021/08/20 11:20:38;;;;;;;8.18;4.93;;;;;;;;;;5069545;28;20117;-61
2021/08/20 11:23:10;;;;;;;10.52;5.35;;;;;;;;;;5070460;28;20067;-61
2021/08/20 11:25:38;;;;;;;7.57;5.07;;;;;;;;;;5063759;28;20046;-62
2021/08/20 11:28:05;;;;;;;6.82;4.85;;;;;;;;;;5068361;28;20442;-62
2021/08/20 11:30:36;;;;;;;5.70;4.10;;;;;;;;;;5069066;28;20448;-62
2021/08/20 11:33:08;;;;;;;6.30;4.47;;;;;;;;;;5066007;28;20399;-62
2021/08/20 11:35:34;;;;;;;7.18;4.40;;;;;;;;;;5061244;28;20079;-62
2021/08/20 11:38:01;;;;;;;9.05;4.53;;;;;;;;;;5061164;28;20041;-62
2021/08/20 11:40:27;;;;;;;6.78;4.50;;;;;;;;;;5058581;28;20045;-62
2021/08/20 11:43:07;;;;;;;6.47;3.90;;;;;;;;;;5068171;28;20072;-62
2021/08/20 11:45:34;;;;;;;6.68;4.82;;;;;;;;;;5075310;28;20123;-62
2021/08/20 11:48:00;;;;;;;7.20;4.28;;;;;;;;;;5079826;28;20067;-61
2021/08/20 11:50:28;;;;;;;5.75;4.30;;;;;;;;;;5077586;28;20056;-61
2021/08/20 11:52:54;;;;;;;9.13;4.53;;;;;;;;;;5072188;28;20114;-61
2021/08/20 11:55:21;;;;;;;7.53;4.22;;;;;;;;;;5078148;28;20119;-61
2021/08/20 11:57:47;;;;;;;6.10;4.60;;;;;;;;;;5077104;28;20044;-62
2021/08/20 12:00:15;;;;;;;10.45;4.70;;;;;;;;;;5078541;28;20396;-62
2021/08/20 12:02:42;;;;;;;8.30;3.90;;;;;;;;;;5065345;28;20518;-62
2021/08/20 12:05:18;;;;;;;5.45;3.80;;;;;;;;;;5067548;28;20094;-62
2021/08/20 12:07:45;;;;;;;5.03;3.35;;;;;;;;;;5067508;28;20067;-62
2021/08/20 12:10:14;;;;;;;5.60;4.05;;;;;;;;;;5069016;28;20052;-62
2021/08/20 12:12:42;;;;;;;6.68;4.13;;;;;;;;;;5056458;28;20103;-62
2021/08/20 12:15:09;;;;;;;7.57;3.88;;;;;;;;;;5071005;28;20476;-62
2021/08/20 12:17:35;;;;;;;7.68;4.13;;;;;;;;;;5068677;28;20053;-62
2021/08/20 12:20:17;;;;;;;6.03;3.70;;;;;;;;;;5068653;28;20048;-62
2021/08/20 12:22:49;;;;;;;5.05;4.13;;;;;;;;;;5069186;28;20080;-61
2021/08/20 12:25:19;;;;;;;6.70;4.25;;;;;;;;;;5069017;28;20033;-62
2021/08/20 12:27:47;;;;;;;7.18;4.40;;;;;;;;;;5068520;28;20123;-61
2021/08/20 12:30:14;;;;;;;5.00;3.83;;;;;;;;;;5069708;28;20048;-60
2021/08/20 12:32:44;;;;;;;9.18;3.90;;;;;;;;;;5068825;28;20111;-61
2021/08/20 12:35:15;;;;;;;8.70;4.25;;;;;;;;;;5068756;28;20082;-62
2021/08/20 12:37:58;;;;;;;6.68;4.10;;;;;;;;;;5069101;28;20047;-62
2021/08/20 12:40:32;;;;;;;8.45;4.10;;;;;;;;;;5066121;28;20072;-61
2021/08/20 12:42:58;;;;;;;4.40;3.40;;;;;;;;;;5065573;28;20125;-61
2021/08/20 12:45:25;;;;;;;4.72;3.90;;;;;;;;;;5068568;28;20099;-61
2021/08/20 12:48:00;;;;;;;6.40;4.15;;;;;;;;;;5068694;28;20040;-61
2021/08/20 12:50:27;;;;;;;6.30;4.30;;;;;;;;;;5063215;28;20044;-61
2021/08/20 12:53:03;;;;;;;8.30;4.75;;;;;;;;;;5068936;28;20423;-61
2021/08/20 12:55:46;;;;;;;8.05;4.10;;;;;;;;;;5067770;28;20091;-62
2021/08/20 12:58:12;;;;;;;8.18;4.00;;;;;;;;;;5065489;28;20048;-61
2021/08/20 13:00:40;;;;;;;7.07;4.03;;;;;;;;;;5067438;28;20075;-61
2021/08/20 13:03:07;;;;;;;6.47;4.20;;;;;;;;;;5069815;28;20470;-62
2021/08/20 13:05:34;;;;;;;6.93;3.72;;;;;;;;;;5071980;28;20461;-61
2021/08/20 13:08:02;;;;;;;6.15;3.63;;;;;;;;;;5071166;28;20115;-62
2021/08/20 13:10:29;;;;;;;6.00;3.90;;;;;;;;;;5071710;28;20048;-61
2021/08/20 13:12:56;;;;;;;5.47;3.75;;;;;;;;;;5071689;28;20044;-61
2021/08/20 13:15:23;;;;;;;7.07;4.00;;;;;;;;;;5072230;28;20087;-61
2021/08/20 13:17:49;;;;;;;6.25;3.55;;;;;;;;;;5074356;28;20040;-61
2021/08/20 13:20:15;;;;;;;4.40;3.47;;;;;;;;;;5072914;28;20094;-61
2021/08/20 13:22:45;;;;;;;8.77;3.92;;;;;;;;;;5070919;28;20131;-61
2021/08/20 13:25:12;;;;;;;7.05;4.20;;;;;;;;;;5071112;28;20040;-61
2021/08/20 13:27:38;;;;;;;5.45;3.70;;;;;;;;;;5072838;28;20049;-61
2021/08/20 13:30:05;;;;;;;6.57;3.90;;;;;;;;;;5073224;28;20531;-61
2021/08/20 13:32:32;;;;;;;4.97;4.03;;;;;;;;;;5072045;28;20049;-61
2021/08/20 13:34:58;;;;;;;6.95;3.60;;;;;;;;;;5072674;28;20044;-62
2021/08/20 13:37:24;;;;;;;7.93;5.07;;;;;;;;;;5072515;28;20129;-62
2021/08/20 13:39:51;;;;;;;5.07;3.53;;;;;;;;;;5072367;28;20051;-62
2021/08/20 13:42:17;;;;;;;4.05;3.60;;;;;;;;;;5073442;28;20055;-62
2021/08/20 13:44:43;;;;;;;5.13;3.80;;;;;;;;;;5073638;28;20048;-62
2021/08/20 13:47:11;;;;;;;4.35;3.40;;;;;;;;;;5072349;28;20044;-62
2021/08/20 13:49:37;;;;;;;3.95;3.22;;;;;;;;;;5072356;28;20037;-62
2021/08/20 13:52:04;;;;;;;5.18;3.47;;;;;;;;;;5072086;28;20513;-62
2021/08/20 13:54:30;;;;;;;5.47;3.40;;;;;;;;;;5072115;28;20041;-62
2021/08/20 13:56:57;;;;;;;6.85;3.30;;;;;;;;;;5064827;28;20060;-62
2021/08/20 13:59:25;;;;;;;5.55;3.10;;;;;;;;;;5064383;28;20076;-62
2021/08/20 14:01:51;;;;;;;5.85;3.10;;;;;;;;;;5070321;28;20106;-61
2021/08/20 14:04:18;;;;;;;5.60;3.83;;;;;;;;;;5070361;28;20055;-62
2021/08/20 14:06:45;;;;;;;5.03;3.40;;;;;;;;;;5069072;28;20098;-62
2021/08/20 14:09:12;;;;;;;4.90;3.30;;;;;;;;;;5073470;28;20044;-62
2021/08/20 14:11:39;;;;;;;5.28;2.80;;;;;;;;;;5072062;28;20105;-62
2021/08/20 14:14:05;;;;;;;6.60;3.10;;;;;;;;;;5071206;28;20498;-62
2021/08/20 14:16:31;;;;;;;3.85;2.65;;;;;;;;;;5070236;28;20117;-62
2021/08/20 14:18:58;;;;;;;4.35;2.53;;;;;;;;;;5072038;28;20075;-62
2021/08/20 14:21:25;;;;;;;7.20;3.13;;;;;;;;;;5067774;28;20131;-62
2021/08/20 14:23:51;;;;;;;4.53;2.70;;;;;;;;;;5069872;28;20050;-62
2021/08/20 14:26:18;;;;;;;4.80;3.13;;;;;;;;;;5055835;28;20045;-61
2021/08/20 14:28:45;;;;;;;3.63;2.75;;;;;;;;;;5057762;28;20068;-61
2021/08/20 14:31:12;;;;;;;4.75;3.30;;;;;;;;;;5055671;28;20041;-61
2021/08/20 14:33:38;;;;;;;5.72;3.17;;;;;;;;;;5054637;28;20517;-61
2021/08/20 14:36:05;;;;;;;6.63;3.47;;;;;;;;;;5055465;28;20127;-58
2021/08/20 14:38:31;;;;;;;4.32;3.08;;;;;;;;;;5062769;28;20060;-60
2021/08/20 14:40:58;;;;;;;3.47;2.70;;;;;;;;;;5058309;28;20466;-62
2021/08/20 14:43:25;;;;;;;5.43;3.08;;;;;;;;;;5056963;28;20072;-61
2021/08/20 14:45:51;;;;;;;3.15;2.80;;;;;;;;;;5064943;28;20049;-59
2021/08/20 14:48:17;;;;;;;5.40;3.22;;;;;;;;;;5065571;28;20056;-61